KMWL/MWL METAR and TAF weather

Enter ICAO airport designator
Station Type Date Time Source
KMWL METAR 2019/04/25 12:07 UTC NOAA

KMWL 251207Z AUTO 15004KT 3SM BR CLR 11/11 A2982 RMK AO2 T01060106


Station Type Date Time Source
KMWL Decoded METAR 2019/04/25 12:07 UTC NOAA

MINERAL WELLS AIRPORT, TX, United States (KMWL) 32-47N 098-04W 284M
Apr 25, 2019 - 08:07 AM EDT / 2019.04.25 1207 UTC
Wind: from the SSE (150 degrees) at 5 MPH (4 KT):0
Visibility: 3 mile(s):0
Sky conditions: clear
Weather: mist
Temperature: 51.1 F (10.6 C)
Dew Point: 51.1 F (10.6 C)
Relative Humidity: 100%
Pressure (altimeter): 29.82 in. Hg (1009 hPa)
ob: KMWL 251207Z AUTO 15004KT 3SM BR CLR 11/11 A2982 RMK AO2 T01060106
cycle: 12

Station Type Date Time Source
KMWL TAF UTC NOAA

Error!

Example: see airport list